»·PEaware :: N62GD KSLC-KJAC

N62GD :: KSLC-KJAC

FLIGHT INFORMATION

Flight Status: Arrived
Operator: Privately registered:
United States
More flights under this callsign
Pilot: Andrew S. (20703)
Aircraft: PILATUS PC-12 EAGLE
(PC12)
More flights by this aircraft type
Origin: KSLC Salt Lake City Intl
United States
Destination: KJAC Jackson Hole
United States
More flights between these airports :: More routes between these airports
Route: +TCH V21 MLD V465 JAC
File this flight plan on PilotEdge
Remarks:
Altitude:
(Current/Filed)
27,000ft
Speed:
(Current/Filed)
265kts
Departed: 21-Dec-18 02:39 PM
Arrived: 21-Dec-18 03:42 PM
Distance/Time
Traveled:
178nm/1:03
Distance/Time
To Go:
Arrived

Flight Plot

Page will automatically refresh every two minutes.

Flight plan parsing failed; only flown route is shown


Map Options




Map Legend


Flown Route
Filed Route
Departure Airport
Arrival Airport
Navaid (VOR, NDB)
Fix

Horizontal Profiles

Position Reports

Time Latitude Longitude Heading Altitude Ground
Speed
21-Dec-18 14:14 40.775648 -111.958739 359 4231ft 0kts
21-Dec-18 14:15 40.776024 -111.959017 276 4231ft 0kts
21-Dec-18 14:16 40.776024 -111.959017 276 4231ft 0kts
21-Dec-18 14:17 40.776024 -111.959017 276 4231ft 0kts
21-Dec-18 14:18 40.776024 -111.959017 276 4231ft 0kts
21-Dec-18 14:19 40.776024 -111.959017 276 4231ft 0kts
21-Dec-18 14:20 40.776024 -111.959017 276 4231ft 0kts
21-Dec-18 14:21 40.776024 -111.959017 276 4231ft 0kts
21-Dec-18 14:22 40.776024 -111.959017 276 4231ft 0kts
21-Dec-18 14:23 40.776024 -111.959017 276 4231ft 0kts
21-Dec-18 14:24 40.776024 -111.959017 276 4231ft 0kts
21-Dec-18 14:25 40.776024 -111.959017 276 4231ft 0kts
21-Dec-18 14:26 40.776024 -111.959017 276 4231ft 0kts
21-Dec-18 14:27 40.776024 -111.959017 276 4231ft 0kts
21-Dec-18 14:28 40.776024 -111.959017 276 4231ft 0kts
21-Dec-18 14:29 40.776024 -111.959017 276 4231ft 0kts
21-Dec-18 14:30 40.776024 -111.959017 276 4231ft 0kts
21-Dec-18 14:31 40.776024 -111.959017 276 4231ft 0kts
21-Dec-18 14:32 40.776024 -111.959017 276 4231ft 0kts
21-Dec-18 14:33 40.776024 -111.959017 276 4231ft 0kts
21-Dec-18 14:34 40.775759 -111.960609 185 4231ft 13kts
21-Dec-18 14:35 40.772957 -111.960631 201 4231ft 0kts
21-Dec-18 14:36 40.772957 -111.960631 201 4231ft 0kts
21-Dec-18 14:37 40.772956 -111.960631 201 4231ft 0kts
21-Dec-18 14:38 40.776458 -111.962026 359 4231ft 85kts
21-Dec-18 14:39 40.815159 -111.969070 350 5510ft 172kts
21-Dec-18 14:40 40.861098 -111.979553 350 7998ft 168kts
21-Dec-18 14:41 40.906538 -111.988184 345 10498ft 164kts
21-Dec-18 14:42 40.949618 -111.998894 340 12991ft 154kts
21-Dec-18 14:43 40.987573 -112.014015 326 15470ft 134kts
21-Dec-18 14:44 41.021570 -112.039856 312 17312ft 151kts
21-Dec-18 14:45 41.065272 -112.055347 352 19126ft 190kts
21-Dec-18 14:46 41.115293 -112.061751 334 20906ft 183kts
21-Dec-18 14:47 41.163447 -112.077230 330 22683ft 177kts
21-Dec-18 14:48 41.209848 -112.093527 328 24464ft 168kts
21-Dec-18 14:49 41.252846 -112.108728 326 26102ft 159kts
21-Dec-18 14:50 41.298740 -112.125570 328 27004ft 186kts
21-Dec-18 14:51 41.355506 -112.145943 331 27023ft 231kts
21-Dec-18 14:52 41.420136 -112.168724 332 27052ft 248kts
21-Dec-18 14:53 41.488042 -112.192949 332 27053ft 256kts
21-Dec-18 14:54 41.556936 -112.217670 332 27052ft 259kts
21-Dec-18 14:55 41.626390 -112.242680 332 27052ft 260kts
21-Dec-18 14:56 41.696113 -112.267855 332 27052ft 260kts
21-Dec-18 14:57 41.765992 -112.293150 332 27052ft 261kts
21-Dec-18 14:58 41.836184 -112.318615 333 27051ft 262kts
21-Dec-18 14:59 41.906541 -112.344192 333 27051ft 263kts
21-Dec-18 15:00 41.976927 -112.369835 333 27051ft 263kts
21-Dec-18 15:01 42.047387 -112.395573 333 27051ft 263kts
21-Dec-18 15:02 42.117186 -112.421124 332 27050ft 262kts
21-Dec-18 15:03 42.187708 -112.446224 344 27046ft 272kts
21-Dec-18 15:04 42.256921 -112.385060 33 27056ft 315kts
21-Dec-18 15:05 42.322695 -112.307196 33 27068ft 314kts
21-Dec-18 15:06 42.388654 -112.229361 33 27080ft 315kts
21-Dec-18 15:07 42.454636 -112.151265 33 27080ft 315kts
21-Dec-18 15:08 42.520513 -112.073074 33 27082ft 316kts
21-Dec-18 15:09 42.586503 -111.994520 33 27083ft 316kts
21-Dec-18 15:10 42.652384 -111.915864 33 27083ft 317kts
21-Dec-18 15:11 42.720203 -111.834887 34 26067ft 346kts
21-Dec-18 15:13 42.794323 -111.745670 35 24095ft 361kts
21-Dec-18 15:14 42.845033 -111.625720 60 22320ft 363kts
21-Dec-18 15:15 42.887792 -111.506208 60 21340ft 340kts
21-Dec-18 15:16 42.928705 -111.393563 60 20372ft 326kts
21-Dec-18 15:17 42.969258 -111.285417 61 19389ft 319kts
21-Dec-18 15:18 43.010357 -111.179281 61 18388ft 313kts
21-Dec-18 15:19 43.051514 -111.075800 60 17394ft 307kts
21-Dec-18 15:20 43.091909 -110.974348 60 16404ft 302kts
21-Dec-18 15:21 43.131131 -110.875159 60 15413ft 298kts
21-Dec-18 15:22 43.170148 -110.776474 60 15007ft 289kts
21-Dec-18 15:23 43.208321 -110.680786 53 14999ft 284kts
21-Dec-18 15:24 43.270965 -110.618690 30 15000ft 279kts
21-Dec-18 15:25 43.335318 -110.559443 30 15001ft 278kts
21-Dec-18 15:26 43.399614 -110.500220 30 15001ft 278kts
21-Dec-18 15:27 43.463905 -110.440953 30 15001ft 278kts
21-Dec-18 15:28 43.528465 -110.382419 18 14991ft 276kts
21-Dec-18 15:29 43.604673 -110.370393 1 14499ft 280kts
21-Dec-18 15:30 43.682379 -110.358327 1 14028ft 281kts
21-Dec-18 15:31 43.759433 -110.346334 2 13564ft 280kts
21-Dec-18 15:32 43.825150 -110.371211 281 12914ft 260kts
21-Dec-18 15:32 43.820020 -110.451870 263 12132ft 246kts
21-Dec-18 15:33 43.810820 -110.543585 243 11137ft 237kts
21-Dec-18 15:34 43.782850 -110.620980 229 9833ft 210kts
21-Dec-18 15:36 43.740610 -110.667162 220 9084ft 121kts
21-Dec-18 15:36 43.714015 -110.685677 201 8505ft 127kts
21-Dec-18 15:37 43.684446 -110.700061 202 7900ft 111kts
21-Dec-18 15:38 43.658550 -110.712747 202 7374ft 98kts
21-Dec-18 15:39 43.632373 -110.725357 203 6852ft 97kts
21-Dec-18 15:40 43.610835 -110.736097 200 6455ft 50kts
21-Dec-18 15:41 43.607002 -110.736312 200 6455ft 34kts

Navigation Log

Ident Type
Flight plan parsing failed, navigation log unavailable